Time;durP1;ratioP1;P1;durP2;ratioP2;P2;SDS_P1;SDS_P2;PMS_P1;PMS_P2;Temp;Humidity;BMP_temperature;BMP_pressure;BME280_temperature;BME280_humidity;BME280_pressure;Samples;Min_cycle;Max_cycle;Signal;HPM_P1;HPM_P2
2022/04/20 00:01:44;;;;;;;4.50;3.25;;;;;;;;;;5026337;28;20064;-60
2022/04/20 00:04:11;;;;;;;5.05;3.10;;;;;;;;;;5026359;28;20041;-60
2022/04/20 00:06:37;;;;;;;5.03;3.53;;;;;;;;;;5026634;28;20072;-60
2022/04/20 00:09:03;;;;;;;6.97;3.58;;;;;;;;;;5026258;28;20046;-60
2022/04/20 00:11:29;;;;;;;4.57;2.95;;;;;;;;;;5026229;28;20470;-60
2022/04/20 00:13:56;;;;;;;12.07;3.05;;;;;;;;;;5026271;28;20049;-61
2022/04/20 00:16:22;;;;;;;6.82;3.25;;;;;;;;;;5026237;28;20050;-60
2022/04/20 00:18:48;;;;;;;6.80;3.45;;;;;;;;;;5026070;28;20045;-60
2022/04/20 00:21:14;;;;;;;8.52;3.22;;;;;;;;;;5006575;28;20046;-61
2022/04/20 00:23:40;;;;;;;4.75;3.30;;;;;;;;;;5006463;28;20049;-61
2022/04/20 00:26:06;;;;;;;4.82;3.38;;;;;;;;;;5006519;28;20070;-60
2022/04/20 00:28:32;;;;;;;4.70;3.38;;;;;;;;;;5006297;28;20537;-61
2022/04/20 00:30:58;;;;;;;4.30;3.40;;;;;;;;;;5021454;28;20046;-60
2022/04/20 00:33:24;;;;;;;7.38;3.72;;;;;;;;;;5006107;28;20042;-60
2022/04/20 00:35:50;;;;;;;9.27;4.07;;;;;;;;;;5006106;28;20050;-60
2022/04/20 00:38:17;;;;;;;7.70;3.72;;;;;;;;;;5006236;28;20065;-60
2022/04/20 00:40:47;;;;;;;6.72;4.15;;;;;;;;;;5012655;28;20077;-60
2022/04/20 00:43:14;;;;;;;8.90;3.85;;;;;;;;;;5025753;28;20053;-61
2022/04/20 00:45:43;;;;;;;12.98;4.80;;;;;;;;;;5025698;28;20212;-60
2022/04/20 00:48:12;;;;;;;8.50;4.82;;;;;;;;;;5025838;28;20103;-60
2022/04/20 00:50:42;;;;;;;10.40;5.15;;;;;;;;;;5025306;28;20069;-60
2022/04/20 00:53:09;;;;;;;7.05;5.10;;;;;;;;;;5025277;28;20134;-61
2022/04/20 00:55:35;;;;;;;6.68;4.30;;;;;;;;;;5025496;28;20050;-61
2022/04/20 00:58:01;;;;;;;12.32;4.38;;;;;;;;;;5007905;28;20050;-60
2022/04/20 01:00:27;;;;;;;7.47;4.30;;;;;;;;;;5024662;28;20065;-61
2022/04/20 01:02:57;;;;;;;6.63;4.30;;;;;;;;;;5025307;28;20449;-61
2022/04/20 01:05:23;;;;;;;8.65;4.50;;;;;;;;;;5007985;28;20046;-61
2022/04/20 01:07:49;;;;;;;9.98;4.25;;;;;;;;;;5025067;28;20485;-60
2022/04/20 01:10:15;;;;;;;5.65;3.63;;;;;;;;;;5025175;28;20050;-61
2022/04/20 01:12:45;;;;;;;5.68;3.63;;;;;;;;;;5025235;28;20045;-60
2022/04/20 01:15:15;;;;;;;6.00;3.42;;;;;;;;;;5025271;28;20056;-60
2022/04/20 01:17:42;;;;;;;7.72;3.90;;;;;;;;;;5007288;28;20049;-60
2022/04/20 01:20:15;;;;;;;7.22;3.60;;;;;;;;;;5024995;28;20050;-60
2022/04/20 01:22:42;;;;;;;12.15;4.00;;;;;;;;;;5025200;28;20044;-60
2022/04/20 01:25:08;;;;;;;5.80;3.78;;;;;;;;;;5025071;28;20065;-60
2022/04/20 01:27:35;;;;;;;5.65;3.47;;;;;;;;;;5024701;28;20050;-60
2022/04/20 01:30:02;;;;;;;8.68;3.60;;;;;;;;;;5025002;28;20097;-60
2022/04/20 01:32:28;;;;;;;5.97;4.05;;;;;;;;;;5024653;28;20049;-60
2022/04/20 01:34:54;;;;;;;8.05;3.80;;;;;;;;;;5024742;28;20101;-60
2022/04/20 01:37:21;;;;;;;6.78;3.90;;;;;;;;;;5024444;28;20114;-60
2022/04/20 01:39:47;;;;;;;7.97;4.05;;;;;;;;;;5024817;28;20053;-60
2022/04/20 01:42:13;;;;;;;6.03;3.95;;;;;;;;;;5024701;28;20073;-60
2022/04/20 01:44:39;;;;;;;8.10;4.00;;;;;;;;;;5024998;28;20057;-61
2022/04/20 01:47:05;;;;;;;6.90;3.72;;;;;;;;;;5024555;28;20058;-60
2022/04/20 01:49:31;;;;;;;6.10;3.65;;;;;;;;;;5024701;28;20089;-61
2022/04/20 01:51:57;;;;;;;9.00;4.07;;;;;;;;;;5024827;28;20050;-61
2022/04/20 01:54:24;;;;;;;5.20;3.80;;;;;;;;;;5007137;28;20097;-61
2022/04/20 01:56:51;;;;;;;7.88;4.70;;;;;;;;;;5024352;28;20134;-60
2022/04/20 01:59:17;;;;;;;;;;;;;;;;;;5025373;28;20100;-59
2022/04/20 02:04:28;;;;;;;11.38;4.20;;;;;;;;;;5024485;28;20046;-61
2022/04/20 02:06:56;;;;;;;6.93;3.88;;;;;;;;;;5024687;28;20045;-60
2022/04/20 02:09:22;;;;;;;8.27;4.85;;;;;;;;;;5024854;28;20045;-61
2022/04/20 02:11:48;;;;;;;6.35;4.35;;;;;;;;;;5027630;28;20120;-62
2022/04/20 02:14:14;;;;;;;5.60;4.10;;;;;;;;;;5011086;28;20046;-61
2022/04/20 02:16:40;;;;;;;10.40;4.70;;;;;;;;;;5028218;28;20490;-60
2022/04/20 02:19:06;;;;;;;8.73;4.43;;;;;;;;;;5028644;28;20050;-60
2022/04/20 02:21:32;;;;;;;5.45;4.00;;;;;;;;;;5025883;28;20049;-61
2022/04/20 02:23:58;;;;;;;7.53;4.63;;;;;;;;;;5008178;28;20058;-60
2022/04/20 02:26:24;;;;;;;5.82;4.22;;;;;;;;;;4991014;28;20054;-61
2022/04/20 02:28:50;;;;;;;8.15;4.22;;;;;;;;;;5008797;28;20054;-61
2022/04/20 02:31:16;;;;;;;5.60;4.25;;;;;;;;;;5012145;28;20042;-60
2022/04/20 02:33:43;;;;;;;5.20;4.22;;;;;;;;;;5010427;28;20053;-60
2022/04/20 02:36:09;;;;;;;8.85;5.30;;;;;;;;;;5028070;28;20050;-60
2022/04/20 02:38:36;;;;;;;6.88;4.05;;;;;;;;;;5028065;28;20060;-60
2022/04/20 02:41:02;;;;;;;6.63;3.65;;;;;;;;;;5027509;28;20069;-60
2022/04/20 02:43:28;;;;;;;6.68;4.32;;;;;;;;;;5027893;28;20041;-61
2022/04/20 02:45:57;;;;;;;7.13;3.97;;;;;;;;;;5010143;28;20089;-60
2022/04/20 02:48:23;;;;;;;7.00;4.75;;;;;;;;;;5027956;28;20054;-60
2022/04/20 02:50:50;;;;;;;7.07;3.45;;;;;;;;;;5027821;28;20050;-61
2022/04/20 02:53:16;;;;;;;6.35;4.72;;;;;;;;;;5027872;28;20386;-60
2022/04/20 02:55:42;;;;;;;6.28;3.97;;;;;;;;;;5027486;28;20054;-60
2022/04/20 02:58:08;;;;;;;7.65;4.25;;;;;;;;;;5027800;28;20046;-60
2022/04/20 03:00:34;;;;;;;5.10;3.65;;;;;;;;;;5027210;28;20424;-60
2022/04/20 03:03:01;;;;;;;6.07;4.45;;;;;;;;;;5027027;28;20066;-61
2022/04/20 03:05:27;;;;;;;6.85;4.32;;;;;;;;;;5027405;28;20045;-60
2022/04/20 03:07:53;;;;;;;6.65;4.72;;;;;;;;;;5009993;28;20057;-61
2022/04/20 03:10:19;;;;;;;7.40;4.28;;;;;;;;;;5027309;28;20057;-61
2022/04/20 03:12:45;;;;;;;7.57;4.38;;;;;;;;;;5027405;28;20057;-61
2022/04/20 03:15:11;;;;;;;6.82;4.28;;;;;;;;;;5027421;28;20058;-61
2022/04/20 03:17:37;;;;;;;9.20;4.57;;;;;;;;;;5027167;28;20505;-63
2022/04/20 03:20:03;;;;;;;6.43;4.28;;;;;;;;;;5027440;28;20513;-60
2022/04/20 03:22:29;;;;;;;6.88;4.93;;;;;;;;;;5026521;28;20046;-61
2022/04/20 03:24:55;;;;;;;6.80;4.65;;;;;;;;;;5027130;28;20046;-61
2022/04/20 03:27:21;;;;;;;6.68;4.30;;;;;;;;;;5026859;28;20046;-61
2022/04/20 03:29:48;;;;;;;8.38;4.88;;;;;;;;;;5027193;28;20056;-61
2022/04/20 03:32:15;;;;;;;9.05;4.75;;;;;;;;;;5026816;28;20109;-61
2022/04/20 03:34:42;;;;;;;7.55;5.18;;;;;;;;;;5026929;28;20050;-60
2022/04/20 03:37:09;;;;;;;5.50;4.28;;;;;;;;;;5026529;28;20756;-60
2022/04/20 03:39:36;;;;;;;10.70;4.55;;;;;;;;;;5026948;28;20113;-60
2022/04/20 03:42:02;;;;;;;5.93;4.85;;;;;;;;;;5026807;28;20048;-60
2022/04/20 03:44:28;;;;;;;6.32;4.93;;;;;;;;;;5026655;28;20038;-59
2022/04/20 03:46:54;;;;;;;11.15;4.93;;;;;;;;;;5026478;28;20105;-59
2022/04/20 03:49:20;;;;;;;7.50;4.90;;;;;;;;;;5026922;28;20107;-60
2022/04/20 03:51:46;;;;;;;8.98;4.85;;;;;;;;;;5026745;28;20049;-59
2022/04/20 03:54:13;;;;;;;8.10;4.88;;;;;;;;;;5026684;28;20050;-60
2022/04/20 03:59:24;;;;;;;9.60;6.07;;;;;;;;;;5026793;28;20061;-59
2022/04/20 04:01:51;;;;;;;6.88;5.47;;;;;;;;;;5026609;28;20049;-60
2022/04/20 04:04:18;;;;;;;8.40;5.82;;;;;;;;;;5026340;28;20054;-61
2022/04/20 04:06:44;;;;;;;9.02;5.20;;;;;;;;;;5026196;28;20128;-61
2022/04/20 04:09:10;;;;;;;6.93;5.25;;;;;;;;;;5026206;28;20058;-61
2022/04/20 04:11:36;;;;;;;7.65;5.40;;;;;;;;;;5026221;28;20041;-60
2022/04/20 04:14:02;;;;;;;7.30;5.07;;;;;;;;;;5008950;28;20042;-60
2022/04/20 04:16:28;;;;;;;10.20;5.90;;;;;;;;;;5025972;28;20056;-60
2022/04/20 04:18:54;;;;;;;10.02;5.50;;;;;;;;;;5026142;28;20128;-60
2022/04/20 04:21:20;;;;;;;10.90;5.13;;;;;;;;;;5026268;28;20170;-60
2022/04/20 04:23:46;;;;;;;6.70;5.10;;;;;;;;;;5026159;28;20060;-61
2022/04/20 04:26:13;;;;;;;7.80;5.03;;;;;;;;;;5025715;28;20045;-60
2022/04/20 04:28:40;;;;;;;8.27;6.95;;;;;;;;;;5025950;28;20050;-60
2022/04/20 04:31:06;;;;;;;9.00;5.83;;;;;;;;;;5026101;28;20046;-60
2022/04/20 04:33:34;;;;;;;7.80;5.72;;;;;;;;;;5024853;28;20069;-60
2022/04/20 04:36:01;;;;;;;6.85;5.10;;;;;;;;;;5025264;28;20074;-60
2022/04/20 04:38:27;;;;;;;9.43;5.38;;;;;;;;;;5025798;28;20046;-60
2022/04/20 04:40:53;;;;;;;8.50;5.55;;;;;;;;;;5025690;28;20046;-61
2022/04/20 04:43:19;;;;;;;7.57;5.35;;;;;;;;;;5025946;28;20053;-60
2022/04/20 04:48:37;;;;;;;8.50;5.80;;;;;;;;;;5025890;28;20069;-60
2022/04/20 04:51:04;;;;;;;8.05;5.47;;;;;;;;;;5025677;28;20069;-60
2022/04/20 04:53:30;;;;;;;8.75;5.70;;;;;;;;;;5025537;28;20469;-60
2022/04/20 04:55:56;;;;;;;7.82;6.07;;;;;;;;;;5025039;28;20490;-60
2022/04/20 04:58:22;;;;;;;8.23;5.10;;;;;;;;;;5025479;28;20048;-60
2022/04/20 05:00:48;;;;;;;7.78;5.78;;;;;;;;;;5025214;28;20122;-60
2022/04/20 05:03:16;;;;;;;8.52;5.93;;;;;;;;;;5025307;28;20042;-60
2022/04/20 05:05:42;;;;;;;8.55;5.75;;;;;;;;;;5025358;28;20049;-60
2022/04/20 05:08:09;;;;;;;9.52;5.65;;;;;;;;;;5025107;28;20057;-60
2022/04/20 05:10:35;;;;;;;8.23;5.55;;;;;;;;;;5025129;28;20049;-60
2022/04/20 05:13:02;;;;;;;8.52;5.13;;;;;;;;;;5025006;28;20054;-60
2022/04/20 05:15:28;;;;;;;7.18;6.05;;;;;;;;;;5025231;28;20069;-60
2022/04/20 05:17:54;;;;;;;6.50;5.25;;;;;;;;;;5025043;28;20044;-60
2022/04/20 05:20:20;;;;;;;8.73;6.22;;;;;;;;;;5024833;28;20053;-60
2022/04/20 05:22:49;;;;;;;10.75;5.80;;;;;;;;;;5024862;28;20121;-61
2022/04/20 05:25:15;;;;;;;12.40;5.07;;;;;;;;;;5025047;28;20049;-60
2022/04/20 05:27:42;;;;;;;7.85;5.50;;;;;;;;;;5025040;28;20049;-60
2022/04/20 05:30:09;;;;;;;8.27;4.93;;;;;;;;;;5024660;28;20050;-60
2022/04/20 05:32:35;;;;;;;9.40;5.93;;;;;;;;;;5021792;28;20101;-60
2022/04/20 05:35:01;;;;;;;6.25;4.75;;;;;;;;;;5023448;28;20049;-60
2022/04/20 05:42:59;;;;;;;9.38;5.13;;;;;;;;;;5024001;28;20131;-61
2022/04/20 05:45:25;;;;;;;8.05;5.13;;;;;;;;;;5024404;28;20057;-61
2022/04/20 05:47:51;;;;;;;8.05;5.28;;;;;;;;;;5006287;28;20065;-60
2022/04/20 05:50:17;;;;;;;7.95;4.85;;;;;;;;;;5024922;28;20046;-61
2022/04/20 05:52:43;;;;;;;8.73;4.88;;;;;;;;;;5024753;28;20042;-60
2022/04/20 05:55:09;;;;;;;7.05;5.25;;;;;;;;;;5024718;28;20076;-61
2022/04/20 05:57:36;;;;;;;8.10;5.20;;;;;;;;;;5007394;28;20046;-61
2022/04/20 06:00:04;;;;;;;9.48;5.10;;;;;;;;;;5023667;28;20053;-60
2022/04/20 06:02:33;;;;;;;7.47;4.55;;;;;;;;;;5023096;28;20045;-61
2022/04/20 06:05:00;;;;;;;7.85;5.15;;;;;;;;;;5022084;28;20061;-60
2022/04/20 06:07:26;;;;;;;7.20;4.95;;;;;;;;;;5023572;28;20069;-61
2022/04/20 06:09:52;;;;;;;7.63;4.63;;;;;;;;;;5024570;28;20092;-60
2022/04/20 06:12:20;;;;;;;6.10;4.57;;;;;;;;;;5023179;28;20061;-61
2022/04/20 06:14:46;;;;;;;8.23;4.53;;;6.20;99.90;;;;;;5012483;28;20058;-60
2022/04/20 06:17:13;;;;;;;5.90;4.35;;;;;;;;;;5002985;28;20046;-60
2022/04/20 06:19:39;;;;;;;10.35;4.18;;;;;;;;;;5021926;28;20437;-60
2022/04/20 06:22:05;;;;;;;4.90;3.70;;;;;;;;;;5021506;28;20442;-60
2022/04/20 06:24:30;;;;;;;6.47;4.32;;;6.60;99.90;;;;;;5021453;28;20049;-61
2022/04/20 06:26:56;;;;;;;5.93;4.40;;;6.90;99.90;;;;;;5022293;28;20037;-60
2022/04/20 06:29:22;;;;;;;6.68;4.47;;;6.70;99.90;;;;;;5025750;28;20045;-60
2022/04/20 06:31:48;;;;;;;7.70;4.30;;;;;;;;;;5043987;28;20045;-62
2022/04/20 06:34:14;;;;;;;9.02;4.60;;;;;;;;;;5031665;28;20054;-61
2022/04/20 06:36:40;;;;;;;7.72;4.47;;;;;;;;;;5023384;28;20659;-59
2022/04/20 06:39:06;;;;;;;6.97;3.97;;;;;;;;;;5023380;28;20084;-60
2022/04/20 06:41:32;;;;;;;6.15;4.38;;;;;;;;;;5016943;28;20046;-60
2022/04/20 06:43:58;;;;;;;6.28;4.60;;;;;;;;;;5016529;28;20076;-60
2022/04/20 06:46:24;;;;;;;7.97;4.68;;;;;;;;;;5024240;28;20045;-59
2022/04/20 06:48:50;;;;;;;5.93;4.30;;;;;;;;;;5024412;28;20101;-60
2022/04/20 06:51:16;;;;;;;8.80;4.55;;;;;;;;;;5024411;28;20050;-61
2022/04/20 06:59:12;;;;;;;3.92;3.00;;;;;;;;;;5028914;28;20053;-60
2022/04/20 07:01:38;;;;;;;3.08;2.42;;;;;;;;;;5027831;28;20073;-60
2022/04/20 07:04:05;;;;;;;8.93;3.78;;;;;;;;;;5009702;28;20129;-60
2022/04/20 07:06:32;;;;;;;7.25;4.07;;;;;;;;;;5027563;28;20057;-61
2022/04/20 07:08:58;;;;;;;4.53;2.90;;;;;;;;;;5025439;28;20084;-60
2022/04/20 07:11:25;;;;;;;7.00;4.20;;;;;;;;;;5027181;28;20038;-60
2022/04/20 07:13:52;;;;;;;8.38;3.50;;;;;;;;;;5027629;28;20053;-60
2022/04/20 07:16:18;;;;;;;10.90;4.05;;;;;;;;;;5019651;28;20054;-60
2022/04/20 07:18:44;;;;;;;6.05;3.90;;;;;;;;;;5026518;28;20049;-61
2022/04/20 07:21:10;;;;;;;7.50;4.45;;;;;;;;;;5026863;28;20105;-62
2022/04/20 07:23:36;;;;;;;6.05;3.83;;;;;;;;;;5024107;28;20522;-61
2022/04/20 07:26:03;;;;;;;7.53;3.63;;;;;;;;;;5019699;28;20054;-61
2022/04/20 07:28:29;;;;;;;5.38;3.40;;;;;;;;;;5007464;28;20111;-61
2022/04/20 07:30:55;;;;;;;10.23;3.88;;;;;;;;;;5007701;28;20046;-61
2022/04/20 07:33:21;;;;;;;6.22;3.17;;;;;;;;;;5019691;28;20141;-61
2022/04/20 07:35:47;;;;;;;6.53;3.15;;;;;;;;;;5026277;28;20046;-62
2022/04/20 07:38:13;;;;;;;4.60;3.30;;;;;;;;;;5026770;28;20097;-61
2022/04/20 07:40:39;;;;;;;5.40;3.38;;;;;;;;;;5025285;28;20050;-61
2022/04/20 07:43:05;;;;;;;5.28;3.00;;;;;;;;;;5009206;28;20100;-61
2022/04/20 07:45:32;;;;;;;5.43;3.60;;;;;;;;;;5026461;28;20097;-61
2022/04/20 07:47:58;;;;;;;4.75;2.88;;;;;;;;;;5026160;28;20072;-61
2022/04/20 07:50:24;;;;;;;6.75;3.40;;;;;;;;;;5025955;28;20061;-61
2022/04/20 07:52:50;;;;;;;3.40;2.22;;;;;;;;;;5025493;28;20358;-61
2022/04/20 07:55:18;;;;;;;4.13;2.38;;;;;;;;;;5025199;28;20050;-62
2022/04/20 07:57:44;;;;;;;4.63;2.60;;;;;;;;;;5020157;28;20049;-62
2022/04/20 08:00:11;;;;;;;2.90;2.33;;;;;;;;;;5016740;28;20498;-62
2022/04/20 08:02:37;;;;;;;3.15;2.03;;;;;;;;;;5017735;28;20050;-62
2022/04/20 08:05:04;;;;;;;6.18;2.38;;;;;;;;;;5013315;28;20497;-62
2022/04/20 08:07:30;;;;;;;2.60;1.77;;;;;;;;;;5025308;28;20041;-62
2022/04/20 08:09:56;;;;;;;4.22;1.80;;;;;;;;;;5025801;28;20077;-62
2022/04/20 08:12:24;;;;;;;4.28;1.63;;;;;;;;;;5025378;28;20441;-62
2022/04/20 08:14:51;;;;;;;2.33;1.80;;;;;;;;;;5026014;28;20053;-62
2022/04/20 08:17:17;;;;;;;9.88;1.90;;;;;;;;;;5025510;28;20049;-62
2022/04/20 08:19:44;;;;;;;5.78;1.92;;;;;;;;;;5024254;28;20029;-62
2022/04/20 08:22:10;;;;;;;2.80;1.83;;;;;;;;;;5025745;28;20046;-62
2022/04/20 08:24:36;;;;;;;4.30;1.58;;;;;;;;;;5008105;28;20053;-61
2022/04/20 08:27:02;;;;;;;3.28;1.30;;;;;;;;;;5024433;28;20077;-62
2022/04/20 08:29:28;;;;;;;3.17;1.70;;;;;;;;;;5006083;28;20153;-62
2022/04/20 08:31:54;;;;;;;2.78;1.60;;;;;;;;;;5009319;28;20414;-62
2022/04/20 08:34:21;;;;;;;2.60;2.33;;;;;;;;;;5016916;28;20045;-61
2022/04/20 08:36:47;;;;;;;4.60;2.00;;;;;;;;;;5025323;28;20118;-62
2022/04/20 08:39:13;;;;;;;2.40;1.50;;;;;;;;;;5024541;28;20437;-61
2022/04/20 08:41:40;;;;;;;3.58;1.52;;;;;;;;;;5024645;28;20077;-62
2022/04/20 08:44:08;;;;;;;1.92;1.58;;;;;;;;;;5025276;28;20053;-62
2022/04/20 08:46:37;;;;;;;2.00;1.50;;;;;;;;;;5025380;28;20077;-62
2022/04/20 08:49:04;;;;;;;3.15;1.65;;;;;;;;;;5023923;28;20050;-62
2022/04/20 08:52:37;;;;;;;7.03;2.40;;;;;;;;;;5023376;28;20046;-62
2022/04/20 08:57:59;;;;;;;3.35;1.50;;;;;;;;;;5019227;28;20129;-62
2022/04/20 09:00:27;;;;;;;6.05;1.75;;;;;;;;;;5019005;28;20105;-62
2022/04/20 09:02:56;;;;;;;2.50;1.48;;;;;;;;;;5017943;28;20046;-65
2022/04/20 09:05:28;;;;;;;3.40;1.52;;;;;;;;;;5022289;28;20049;-62
2022/04/20 09:07:54;;;;;;;3.85;1.60;;;;;;;;;;5019273;28;20173;-63
2022/04/20 09:10:20;;;;;;;2.35;1.50;;;;;;;;;;5004446;28;20046;-63
2022/04/20 09:12:47;;;;;;;3.33;1.73;;;;;;;;;;5022185;28;20042;-63
2022/04/20 09:15:28;;;;;;;1.98;1.55;;;;;;;;;;5024608;28;20053;-63
2022/04/20 09:17:56;;;;;;;2.45;1.60;;;;;;;;;;5024818;28;20049;-63
2022/04/20 09:20:22;;;;;;;2.53;1.38;;;;;;;;;;5022858;28;20121;-62
2022/04/20 09:23:05;;;;;;;1.73;1.30;;;;;;;;;;5000155;28;20053;-63
2022/04/20 09:25:35;;;;;;;2.63;1.80;;;;;;;;;;5021627;28;20041;-64
2022/04/20 09:28:02;;;;;;;1.98;1.45;;;;;;;;;;5004254;28;20103;-62
2022/04/20 09:30:35;;;;;;;2.07;1.23;;;;;;;;;;5025256;28;20112;-62
2022/04/20 09:33:06;;;;;;;2.53;1.60;;;;;;;;;;5019944;28;20504;-63
2022/04/20 09:35:40;;;;;;;2.80;1.73;;;;;;;;;;5023213;28;20128;-64
2022/04/20 09:38:07;;;;;;;3.63;1.77;;;;;;;;;;5016034;28;20045;-63
2022/04/20 09:40:34;;;;;;;2.28;1.42;;;;;;;;;;5023534;28;20053;-64
2022/04/20 09:43:06;;;;;;;3.30;1.70;;;;;;;;;;5019054;28;20043;-64
2022/04/20 09:45:34;;;;;;;2.78;1.60;;;;;;;;;;5004755;28;20058;-63
2022/04/20 09:50:46;;;;;;;2.67;1.27;;;;;;;;;;5022763;28;19921;-64
2022/04/20 09:53:14;;;;;;;3.60;1.88;;;;;;;;;;5001272;28;20057;-63
2022/04/20 09:55:41;;;;;;;1.80;1.45;;;;;;;;;;5020799;28;20053;-64
2022/04/20 09:58:18;;;;;;;1.52;1.42;;;;;;;;;;5014728;28;20410;-62
2022/04/20 10:00:56;;;;;;;1.70;1.17;;;;;;;;;;5015472;28;20101;-63
2022/04/20 10:03:24;;;;;;;1.58;1.10;;;;;;;;;;5020523;28;20052;-62
2022/04/20 10:05:50;;;;;;;1.60;1.50;;;;;;;;;;5021698;28;20129;-64
2022/04/20 10:08:17;;;;;;;3.03;1.38;;;;;;;;;;5020923;28;20046;-63
2022/04/20 10:10:43;;;;;;;2.90;1.30;;;;;;;;;;5020970;28;20065;-62
2022/04/20 10:13:10;;;;;;;3.25;1.65;;;;;;;;;;5003744;28;20636;-63
2022/04/20 10:18:22;;;;;;;5.97;1.55;;;;;;;;;;5021488;28;20052;-62
2022/04/20 10:20:50;;;;;;;1.70;1.20;;;;;;;;;;5022439;28;20053;-63
2022/04/20 10:23:16;;;;;;;;;;;;;;;;;;5037700;28;20057;-63
2022/04/20 10:25:42;;;;;;;1.25;1.00;;;;;;;;;;5022053;28;19953;-63
2022/04/20 10:28:14;;;;;;;1.67;1.10;;;;;;;;;;5020921;28;20560;-63
2022/04/20 10:30:40;;;;;;;1.88;1.05;;;;;;;;;;5022676;28;20573;-64
2022/04/20 10:33:11;;;;;;;2.03;1.08;;;;;;;;;;5025041;28;20045;-63
2022/04/20 10:36:01;;;;;;;3.20;1.17;;;;;;;;;;5025703;28;20137;-63
2022/04/20 10:38:30;;;;;;;1.60;1.02;;;;;;;;;;5017721;28;20046;-63
2022/04/20 10:40:56;;;;;;;2.72;1.17;;;;;;;;;;5024542;28;20042;-63
2022/04/20 10:43:27;;;;;;;1.73;0.93;;;;;;;;;;5007315;28;20162;-62
2022/04/20 10:46:14;;;;;;;1.48;1.15;;;;;;;;;;5025306;28;20049;-62
2022/04/20 10:48:47;;;;;;;3.40;1.27;;;;;;;;;;5024867;28;20053;-62
2022/04/20 10:51:17;;;;;;;2.28;1.05;;;;;;;;;;5021881;28;20049;-63
2022/04/20 10:53:48;;;;;;;5.10;1.20;;;;;;;;;;5023963;28;20041;-63
2022/04/20 10:56:15;;;;;;;2.55;1.10;;;;;;;;;;5026483;28;20060;-62
2022/04/20 10:58:54;;;;;;;1.75;1.20;;;;;;;;;;5024826;28;20066;-63
2022/04/20 11:01:20;;;;;;;1.10;0.82;;;;;;;;;;5024292;28;20046;-63
2022/04/20 11:03:53;;;;;;;1.65;1.05;;;;;;;;;;5023529;28;20046;-63
2022/04/20 11:06:20;;;;;;;1.80;0.98;;;;;;;;;;5007612;28;20387;-63
2022/04/20 11:08:51;;;;;;;1.73;1.02;;;;;;;;;;5024343;28;20125;-62
2022/04/20 11:19:55;;;;;;;1.70;1.00;;;;;;;;;;5019819;28;20060;-63
2022/04/20 11:22:22;;;;;;;1.58;1.05;;;;;;;;;;5024490;28;20046;-63
2022/04/20 11:25:02;;;;;;;1.25;0.70;;;;;;;;;;5008045;28;20060;-63
2022/04/20 11:27:35;;;;;;;3.90;1.00;;;;;;;;;;5024394;28;20050;-63
2022/04/20 11:30:03;;;;;;;1.63;0.80;;;;;;;;;;5023181;28;20097;-63
2022/04/20 11:32:29;;;;;;;2.03;0.65;;;;;;;;;;5023071;28;20038;-62
2022/04/20 11:35:08;;;;;;;2.95;1.17;;;;;;;;;;5018525;28;20057;-62
2022/04/20 11:37:34;;;;;;;1.88;0.80;;;;;;;;;;5023330;28;20100;-63
2022/04/20 11:40:00;;;;;;;1.20;0.93;;;;;;;;;;5023937;28;20049;-63
2022/04/20 11:42:26;;;;;;;1.17;0.68;;;;;;;;;;5026100;28;20046;-63
2022/04/20 11:44:52;;;;;;;2.60;0.60;;;;;;;;;;5025530;28;20109;-63
2022/04/20 11:47:19;;;;;;;1.10;0.73;;;;;;;;;;5024949;28;20486;-63
2022/04/20 11:49:48;;;;;;;0.50;0.50;;;;;;;;;;5024525;28;20081;-63
2022/04/20 11:52:15;;;;;;;0.90;0.68;;;;;;;;;;5022401;28;20128;-63
2022/04/20 11:54:46;;;;;;;1.33;0.82;;;;;;;;;;5020802;28;20085;-62
2022/04/20 11:57:12;;;;;;;2.85;0.70;;;;;;;;;;5022760;28;20094;-63
2022/04/20 11:59:49;;;;;;;1.23;0.80;;;;;;;;;;5023447;28;20045;-63
2022/04/20 12:02:16;;;;;;;2.03;0.75;;;;;;;;;;5020039;28;20038;-63
2022/04/20 12:04:46;;;;;;;1.42;0.70;;;;;;;;;;5023097;28;20046;-63
2022/04/20 12:07:12;;;;;;;1.27;0.80;;;;;;;;;;5018711;28;20069;-63
2022/04/20 12:09:40;;;;;;;1.65;0.93;;;;;;;;;;5021521;28;20104;-62
2022/04/20 12:12:07;;;;;;;2.90;0.88;;;;;;;;;;5018612;28;20046;-62
2022/04/20 12:14:34;;;;;;;0.95;0.70;;;;;;;;;;5021658;28;20038;-62
2022/04/20 12:17:22;;;;;;;1.58;0.90;;;;;;;;;;5022669;28;20545;-62
2022/04/20 12:19:50;;;;;;;1.10;0.90;;;;;;;;;;5023618;28;20085;-63
2022/04/20 12:22:21;;;;;;;1.35;0.80;;;;;;;;;;5025902;28;20499;-63
2022/04/20 12:24:49;;;;;;;1.38;0.80;;;;;;;;;;5025980;28;20090;-63
2022/04/20 12:27:19;;;;;;;1.20;0.88;;;;;;;;;;5025703;28;20045;-63
2022/04/20 12:29:46;;;;;;;1.85;0.90;;;;;;;;;;5025782;28;20046;-63
2022/04/20 12:32:12;;;;;;;2.08;0.95;;;;;;;;;;5025483;28;20157;-63
2022/04/20 12:34:51;;;;;;;1.55;1.00;;;;;;;;;;5016180;28;20042;-63
2022/04/20 12:37:20;;;;;;;2.50;0.88;;;;;;;;;;5013458;28;20096;-62
2022/04/20 12:39:46;;;;;;;0.80;0.75;;;;;;;;;;5025583;28;20050;-62
2022/04/20 12:42:13;;;;;;;1.58;0.93;;;;;;;;;;5025490;28;20049;-63
2022/04/20 12:44:40;;;;;;;2.08;0.85;;;;;;;;;;5007535;28;20053;-63
2022/04/20 12:47:06;;;;;;;;;;;;;;;;;;5025934;28;20093;-62
2022/04/20 12:49:32;;;;;;;0.85;0.80;;;;;;;;;;5025363;28;19976;-62
2022/04/20 12:52:08;;;;;;;2.45;1.20;;;;;;;;;;5023767;28;20106;-62
2022/04/20 12:54:35;;;;;;;1.85;0.93;;;;;;;;;;5006720;28;20057;-62
2022/04/20 13:02:31;;;;;;;2.90;1.23;;;;;;;;;;5025146;28;20046;-63
2022/04/20 13:04:57;;;;;;;1.87;1.00;;;;;;;;;;5025002;28;20069;-62
2022/04/20 13:07:24;;;;;;;1.42;1.08;;;;;;;;;;5024336;28;20044;-62
2022/04/20 13:09:50;;;;;;;4.25;2.00;;;;;;;;;;5008661;28;20050;-62
2022/04/20 13:12:16;;;;;;;7.30;2.20;;;;;;;;;;5005442;28;20703;-63
2022/04/20 13:14:42;;;;;;;2.90;1.95;;;;;;;;;;5005493;28;20050;-62
2022/04/20 13:17:09;;;;;;;3.13;2.28;;;;;;;;;;5005524;28;20046;-62
2022/04/20 13:19:39;;;;;;;5.85;2.80;;;;;;;;;;5020227;28;20045;-63
2022/04/20 13:22:05;;;;;;;4.72;2.70;;;;;;;;;;5025040;28;20045;-62
2022/04/20 13:30:01;;;;;;;4.82;2.60;;;;;;;;;;5023406;28;20060;-62
2022/04/20 13:32:28;;;;;;;3.15;2.10;;;;;;;;;;5018571;28;20046;-61
2022/04/20 13:34:54;;;;;;;4.43;2.47;;;;;;;;;;4993482;28;20053;-62
2022/04/20 13:37:21;;;;;;;4.55;2.28;;;;;;;;;;5022627;28;20061;-63
2022/04/20 13:39:47;;;;;;;7.30;2.80;;;;;;;;;;5024113;28;20049;-63
2022/04/20 13:42:13;;;;;;;3.85;2.20;;;;;;;;;;5023902;28;20513;-63
2022/04/20 13:44:39;;;;;;;4.32;2.60;;;;;;;;;;5023780;28;20073;-62
2022/04/20 13:47:05;;;;;;;4.53;2.90;;;;;;;;;;5024470;28;20046;-63
2022/04/20 13:49:31;;;;;;;9.00;3.25;;;;;;;;;;5024329;28;20053;-63
2022/04/20 13:51:57;;;;;;;3.75;2.28;;;;;;;;;;5023976;28;20081;-63
2022/04/20 13:54:23;;;;;;;10.15;2.95;;;;;;;;;;5021295;28;20050;-63
2022/04/20 13:56:50;;;;;;;3.08;2.58;;;;;;;;;;5018647;28;20046;-63
2022/04/20 13:59:17;;;;;;;4.17;2.77;;;;;;;;;;5003615;28;20057;-62
2022/04/20 14:01:43;;;;;;;3.47;2.70;;;;;;;;;;5024254;28;20280;-63
2022/04/20 14:04:09;;;;;;;4.13;2.85;;;;;;;;;;5022566;28;20054;-62
2022/04/20 14:06:35;;;;;;;4.32;3.45;;;;;;;;;;5025628;28;20041;-62
2022/04/20 14:09:03;;;;;;;8.73;3.60;;;;;;;;;;5028116;28;20105;-63
2022/04/20 14:11:29;;;;;;;;;;;;;;;;;;5028549;28;20056;-62
2022/04/20 14:13:55;;;;;;;4.45;3.08;;;;;;;;;;5027908;28;19944;-62
2022/04/20 14:16:23;;;;;;;3.03;2.73;;;;;;;;;;5028225;28;20128;-62
2022/04/20 14:18:49;;;;;;;3.53;2.80;;;;;;;;;;5027422;28;20037;-63
2022/04/20 14:21:16;;;;;;;5.50;3.92;;;;;;;;;;5019793;28;20042;-62
2022/04/20 14:23:42;;;;;;;3.90;3.10;;;;;;;;;;5017804;28;20616;-63
2022/04/20 14:34:23;;;;;;;8.70;3.97;;;;;;;;;;5022893;28;20053;-62
2022/04/20 14:36:49;;;;;;;4.68;4.18;;;;;;;;;;5023567;28;20136;-63
2022/04/20 14:39:15;;;;;;;4.82;3.80;;;;;;;;;;5024113;28;20121;-63
2022/04/20 14:41:41;;;;;;;9.65;4.30;;;;;;;;;;5019724;28;20060;-62
2022/04/20 14:44:08;;;;;;;5.40;3.97;;;;;;;;;;5025355;28;20061;-62
2022/04/20 14:46:35;;;;;;;4.78;3.70;;;;;;;;;;5015758;28;20038;-63
2022/04/20 14:49:01;;;;;;;4.57;3.57;;;;;;;;;;5020779;28;20152;-62
2022/04/20 14:51:27;;;;;;;5.57;3.95;;;;;;;;;;5016803;28;20059;-62
2022/04/20 14:53:54;;;;;;;8.03;4.00;;;;;;;;;;5019553;28;20046;-63
2022/04/20 14:56:20;;;;;;;3.23;2.57;;;;;;;;;;5019051;28;20121;-62
2022/04/20 14:58:48;;;;;;;4.65;4.05;;;;;;;;;;5009335;28;20069;-62
2022/04/20 15:01:14;;;;;;;;;;;;;;;;;;5019022;28;20050;-63
2022/04/20 15:03:40;;;;;;;8.02;3.92;;;;;;;;;;5013986;28;20718;-63
2022/04/20 15:06:08;;;;;;;5.27;3.97;;;;;;;;;;5027123;28;20077;-63
2022/04/20 15:08:34;;;;;;;4.53;3.60;;;;;;;;;;5029289;28;20304;-62
2022/04/20 15:11:01;;;;;;;3.70;3.20;;;;;;;;;;5025067;28;20077;-62
2022/04/20 15:13:27;;;;;;;4.07;3.63;;;;;;;;;;5020102;28;20103;-62
2022/04/20 15:15:53;;;;;;;6.65;3.95;;;;;;;;;;5026285;28;20054;-68
2022/04/20 15:18:19;;;;;;;4.65;3.80;;;;;;;;;;5017247;28;20046;-69
2022/04/20 15:20:45;;;;;;;5.13;3.92;;;;;;;;;;5024361;28;20053;-69
2022/04/20 15:23:11;;;;;;;6.57;4.15;;;;;;;;;;5024565;28;20049;-69
2022/04/20 15:25:37;;;;;;;6.47;3.67;;;;;;;;;;5019499;28;20041;-69
2022/04/20 15:28:04;;;;;;;5.03;3.70;;;;;;;;;;5024462;28;20038;-69
2022/04/20 15:30:35;;;;;;;6.30;3.97;;;;;;;;;;5007595;28;20050;-69
2022/04/20 15:33:01;;;;;;;4.07;2.65;;;;;;;;;;5019057;28;20461;-69
2022/04/20 15:35:27;;;;;;;4.97;3.17;;;;;;;;;;5024504;28;20069;-69
2022/04/20 15:37:53;;;;;;;4.00;3.60;;;;;;;;;;5028512;28;20049;-69
2022/04/20 15:40:20;;;;;;;6.15;4.10;;;;;;;;;;5008376;28;20053;-68